Kyle, Texas
Current Conditions -  °F | °C
As of 4:55 AM on Wednesday 26 Nov 2014 (Local Time) from KHYI Reporting Station
Clear Clear  
Wind Chill: 33°   Ceiling: Unl
Heat Index: 37°   Visibility: 10mi
Dew Point: 30°   Wind: 6mph
Humidity: 75%   Direction: 220°SW
Pressure: 30.21"   Gusts: NA
Location:  29.99°N, 97.88°W
Report Text: KHYI 261055Z 22005KT 170V230 10SM CLR 03/M01 A3021 RMK AO1
Loading
Personal Weather Stations






























Interactive Weather Map New forecast layout! Learn more

10-Day Weather Forecast

Advertisements
Track Severe Weather on mobile